createdAt,value
2018-05-28T00:00:25.842Z,75.98
2018-05-28T00:02:53.375Z,76.38
2018-05-28T00:05:20.903Z,76.35
2018-05-28T00:07:48.452Z,75.70
2018-05-28T00:10:16.030Z,76.01
2018-05-28T00:12:43.553Z,75.98
2018-05-28T00:15:11.073Z,75.66
2018-05-28T00:17:38.758Z,76.68
2018-05-28T00:20:06.281Z,76.90
2018-05-28T00:22:33.809Z,76.99
2018-05-28T00:25:01.349Z,77.23
2018-05-28T00:27:28.869Z,77.07
2018-05-28T00:29:56.409Z,76.82
2018-05-28T00:32:23.934Z,76.68
2018-05-28T00:34:51.966Z,76.41
2018-05-28T00:37:19.485Z,76.38
2018-05-28T00:39:47.018Z,76.18
2018-05-28T00:42:14.570Z,76.23
2018-05-28T00:44:42.144Z,75.31
2018-05-28T00:47:09.717Z,75.10
2018-05-28T00:49:37.276Z,74.64
2018-05-28T00:52:04.798Z,74.91
2018-05-28T00:54:32.351Z,75.06
2018-05-28T00:57:00.339Z,75.15
2018-05-28T00:59:27.871Z,75.83
2018-05-28T01:01:55.394Z,76.32
2018-05-28T01:04:22.938Z,75.97
2018-05-28T01:06:50.457Z,74.88
2018-05-28T01:09:18.005Z,74.89
2018-05-28T01:11:45.521Z,74.71
2018-05-28T01:14:13.245Z,74.57
2018-05-28T01:16:40.777Z,74.40
2018-05-28T01:19:08.305Z,74.42
2018-05-28T01:21:36.182Z,74.42
2018-05-28T01:24:03.716Z,73.86
2018-05-28T01:26:31.252Z,73.78
2018-05-28T01:28:58.793Z,73.45
2018-05-28T01:31:26.462Z,73.53
2018-05-28T01:33:53.980Z,74.31
2018-05-28T01:36:21.505Z,74.14
2018-05-28T01:38:49.048Z,74.17
2018-05-28T01:41:16.767Z,74.27
2018-05-28T01:43:44.296Z,74.27
2018-05-28T01:46:11.819Z,74.81
2018-05-28T01:48:39.573Z,75.37
2018-05-28T01:51:07.132Z,74.74
2018-05-28T01:53:34.653Z,74.78
2018-05-28T01:56:02.204Z,75.12
2018-05-28T01:58:29.730Z,75.33
2018-05-28T02:00:57.318Z,75.52
2018-05-28T02:03:24.855Z,76.28
2018-05-28T02:05:52.373Z,76.48
2018-05-28T02:08:19.932Z,77.18
2018-05-28T02:10:47.511Z,77.08
2018-05-28T02:13:15.053Z,77.43
2018-05-28T02:15:42.593Z,77.42
2018-05-28T02:18:10.154Z,77.99
2018-05-28T02:20:37.679Z,78.43
2018-05-28T02:23:05.248Z,79.16
2018-05-28T02:25:32.775Z,79.56
2018-05-28T02:28:00.446Z,79.52
2018-05-28T02:30:28.068Z,79.59
2018-05-28T02:32:55.607Z,79.67
2018-05-28T02:35:23.195Z,79.43
2018-05-28T02:37:50.729Z,79.75
2018-05-28T02:40:18.281Z,80.00
2018-05-28T02:42:45.845Z,80.09
2018-05-28T02:45:13.383Z,80.29
2018-05-28T02:47:40.951Z,79.96
2018-05-28T02:50:08.513Z,80.10
2018-05-28T02:52:36.073Z,80.64
2018-05-28T02:55:03.619Z,80.93
2018-05-28T02:57:31.235Z,80.79
2018-05-28T02:59:58.791Z,80.73
2018-05-28T03:02:27.300Z,80.78
2018-05-28T03:04:54.903Z,80.16
2018-05-28T03:07:22.441Z,79.86
2018-05-28T03:09:49.984Z,80.14
2018-05-28T03:12:17.560Z,79.48
2018-05-28T03:14:45.107Z,78.75
2018-05-28T03:17:12.843Z,79.34
2018-05-28T03:19:40.372Z,78.84
2018-05-28T03:22:07.905Z,78.88
2018-05-28T03:24:35.668Z,79.13
2018-05-28T03:27:03.191Z,79.35
2018-05-28T03:29:30.726Z,79.21
2018-05-28T03:31:58.434Z,78.88
2018-05-28T03:34:25.963Z,79.17
2018-05-28T03:36:53.495Z,78.87
2018-05-28T03:39:21.060Z,78.32
2018-05-28T03:41:48.592Z,77.98
2018-05-28T03:44:16.565Z,78.96
2018-05-28T03:46:44.111Z,78.82
2018-05-28T03:49:11.656Z,78.68
2018-05-28T03:51:39.381Z,77.32
2018-05-28T03:54:06.907Z,76.44
2018-05-28T03:56:34.444Z,76.35
2018-05-28T03:59:02.352Z,76.51
2018-05-28T04:01:41.771Z,76.53
2018-05-28T04:04:21.523Z,76.30
2018-05-28T04:06:49.180Z,76.75
2018-05-28T04:09:22.657Z,75.87
2018-05-28T04:11:50.213Z,75.88
2018-05-28T04:14:17.759Z,75.79
2018-05-28T04:16:45.386Z,75.83
2018-05-28T04:19:13.305Z,74.59
2018-05-28T04:21:40.844Z,74.52
2018-05-28T04:24:08.407Z,73.14
2018-05-28T04:26:35.973Z,71.74
2018-05-28T04:29:04.011Z,70.55
2018-05-28T04:31:31.549Z,70.96
2018-05-28T04:33:59.092Z,71.23
2018-05-28T04:36:26.650Z,71.80
2018-05-28T04:38:54.202Z,69.18
2018-05-28T04:41:21.764Z,68.81
2018-05-28T04:43:49.353Z,66.48
2018-05-28T04:46:16.974Z,67.00
2018-05-28T04:48:44.516Z,69.31
2018-05-28T04:51:12.045Z,70.74
2018-05-28T04:53:39.739Z,68.44
2018-05-28T04:56:07.267Z,68.65
2018-05-28T04:58:34.794Z,69.12
2018-05-28T05:01:02.371Z,70.84
2018-05-28T05:03:29.899Z,68.84
2018-05-28T05:05:57.468Z,68.96
2018-05-28T05:08:24.999Z,68.19
2018-05-28T05:10:53.440Z,70.22
2018-05-28T05:13:20.988Z,68.87
2018-05-28T05:15:48.525Z,64.27
2018-05-28T05:18:16.295Z,63.44
2018-05-28T05:20:43.835Z,59.99
2018-05-28T05:23:11.362Z,56.94
2018-05-28T05:25:38.921Z,55.48
2018-05-28T05:28:06.465Z,53.96
2018-05-28T05:30:34.437Z,53.08
2018-05-28T05:33:01.996Z,50.98
2018-05-28T05:35:29.532Z,47.62
2018-05-28T05:37:57.384Z,50.00
2018-05-28T05:40:24.912Z,53.01
2018-05-28T05:42:52.445Z,50.79
2018-05-28T05:45:20.002Z,50.36
2018-05-28T05:47:47.558Z,50.60
2018-05-28T05:50:15.129Z,51.67
2018-05-28T05:52:42.783Z,52.67
2018-05-28T05:55:10.314Z,50.70
2018-05-28T05:57:37.831Z,53.13
2018-05-28T06:00:05.384Z,50.14
2018-05-28T06:02:32.906Z,49.97
2018-05-28T06:05:00.483Z,50.37
2018-05-28T06:07:28.044Z,50.47
2018-05-28T06:09:55.584Z,52.75
2018-05-28T06:12:23.146Z,54.79
2018-05-28T06:14:50.712Z,57.11
2018-05-28T06:17:18.299Z,57.43
2018-05-28T06:19:45.965Z,50.84
2018-05-28T06:22:13.513Z,53.99
2018-05-28T06:24:41.043Z,58.20
2018-05-28T06:27:08.618Z,54.52
2018-05-28T06:29:36.156Z,53.82
2018-05-28T06:32:03.693Z,52.58
2018-05-28T06:34:31.254Z,54.60
2018-05-28T06:36:58.786Z,57.74
2018-05-28T06:39:26.373Z,58.63
2018-05-28T06:41:53.908Z,58.39
2018-05-28T06:44:21.446Z,62.82
2018-05-28T06:46:49.017Z,57.09
2018-05-28T06:49:16.576Z,56.41
2018-05-28T06:51:44.128Z,55.30
2018-05-28T06:54:12.041Z,56.69
2018-05-28T06:56:39.576Z,58.75
2018-05-28T06:59:07.103Z,55.26
2018-05-28T07:01:34.672Z,54.98
2018-05-28T07:04:02.203Z,55.24
2018-05-28T07:06:30.144Z,53.96
2018-05-28T07:08:57.695Z,57.92
2018-05-28T07:11:25.326Z,57.75
2018-05-28T07:13:52.902Z,57.59
2018-05-28T07:16:20.442Z,59.19
2018-05-28T07:18:47.975Z,60.04
2018-05-28T07:21:15.531Z,61.99
2018-05-28T07:23:43.128Z,62.38
2018-05-28T07:26:10.840Z,62.82
2018-05-28T07:28:38.375Z,62.45
2018-05-28T07:31:05.908Z,62.48
2018-05-28T07:33:33.471Z,62.18
2018-05-28T07:36:01.022Z,63.07
2018-05-28T07:38:28.611Z,61.88
2018-05-28T07:40:56.139Z,62.38
2018-05-28T07:43:23.663Z,63.65
2018-05-28T07:45:51.303Z,63.51
2018-05-28T07:48:18.844Z,63.64
2018-05-28T07:50:46.931Z,63.08
2018-05-28T07:53:14.459Z,63.88
2018-05-28T07:55:42.045Z,63.27
2018-05-28T07:58:09.584Z,63.09
2018-05-28T08:00:37.118Z,61.84
2018-05-28T08:03:04.839Z,62.40
2018-05-28T08:05:32.387Z,61.29
2018-05-28T08:07:59.968Z,61.20
2018-05-28T08:10:27.506Z,62.01
2018-05-28T08:12:55.066Z,60.75
2018-05-28T08:15:22.593Z,59.81
2018-05-28T08:17:50.259Z,60.98
2018-05-28T08:20:17.784Z,58.86
2018-05-28T08:22:45.392Z,59.41
2018-05-28T08:25:12.946Z,60.71
2018-05-28T08:27:40.479Z,61.68
2018-05-28T08:30:08.012Z,58.90
2018-05-28T08:32:35.563Z,57.81
2018-05-28T08:35:03.285Z,60.10
2018-05-28T08:37:30.811Z,59.46
2018-05-28T08:39:58.344Z,59.43
2018-05-28T08:42:26.333Z,59.73
2018-05-28T08:44:53.890Z,58.95
2018-05-28T08:47:21.422Z,58.05
2018-05-28T08:49:48.975Z,57.34
2018-05-28T08:52:16.509Z,55.88
2018-05-28T08:54:44.067Z,57.05
2018-05-28T08:57:11.618Z,56.47
2018-05-28T08:59:39.537Z,55.31
2018-05-28T09:02:07.073Z,55.14
2018-05-28T09:04:34.594Z,57.03
2018-05-28T09:07:02.552Z,58.37
2018-05-28T09:09:30.177Z,55.33
2018-05-28T09:11:57.719Z,53.34
2018-05-28T09:14:25.275Z,53.53
2018-05-28T09:16:53.276Z,53.35
2018-05-28T09:19:20.809Z,55.04
2018-05-28T09:21:48.351Z,57.33
2018-05-28T09:24:15.936Z,52.91
2018-05-28T09:26:43.476Z,54.13
2018-05-28T09:29:11.056Z,53.03
2018-05-28T09:31:38.583Z,52.95
2018-05-28T09:34:06.115Z,53.91
2018-05-28T09:36:33.807Z,51.92
2018-05-28T09:39:01.353Z,54.00
2018-05-28T09:41:28.889Z,52.71
2018-05-28T09:43:56.464Z,56.82
2018-05-28T09:46:23.996Z,51.59
2018-05-28T09:48:51.551Z,53.13
2018-05-28T09:51:19.103Z,50.25
2018-05-28T09:53:46.670Z,49.25
2018-05-28T09:56:14.208Z,50.01
2018-05-28T09:58:41.770Z,52.76
2018-05-28T10:01:09.308Z,52.50
2018-05-28T10:03:36.859Z,50.44
2018-05-28T10:06:04.391Z,51.42
2018-05-28T10:08:32.311Z,51.75
2018-05-28T10:10:59.836Z,52.32
2018-05-28T10:13:27.370Z,52.58
2018-05-28T10:15:54.928Z,52.27
2018-05-28T10:18:22.484Z,49.69
2018-05-28T10:20:50.039Z,50.66
2018-05-28T10:23:17.567Z,51.45
2018-05-28T10:25:45.328Z,50.86
2018-05-28T10:28:12.860Z,51.48
2018-05-28T10:30:40.399Z,48.62
2018-05-28T10:33:07.983Z,49.34
2018-05-28T10:35:35.511Z,49.62
2018-05-28T10:38:03.063Z,51.02
2018-05-28T10:40:30.632Z,49.80
2018-05-28T10:42:58.224Z,47.64
2018-05-28T10:45:25.757Z,47.50
2018-05-28T10:47:53.290Z,49.43
2018-05-28T10:50:20.866Z,51.48
2018-05-28T10:52:48.820Z,48.83
2018-05-28T10:55:16.346Z,47.65
2018-05-28T10:57:43.872Z,45.20
2018-05-28T11:00:11.424Z,46.10
2018-05-28T11:02:38.959Z,46.95
2018-05-28T11:05:06.515Z,45.24
2018-05-28T11:07:34.072Z,46.46
2018-05-28T11:10:01.742Z,42.40
2018-05-28T11:12:29.301Z,45.46
2018-05-28T11:14:56.827Z,45.52
2018-05-28T11:17:24.368Z,43.39
2018-05-28T11:19:51.930Z,43.75
2018-05-28T11:22:19.516Z,43.81
2018-05-28T11:24:47.051Z,45.81
2018-05-28T11:27:14.584Z,44.61
2018-05-28T11:29:42.151Z,45.47
2018-05-28T11:32:09.691Z,44.78
2018-05-28T11:34:37.382Z,45.07
2018-05-28T11:37:04.915Z,44.90
2018-05-28T11:39:32.448Z,42.08
2018-05-28T11:42:00.287Z,41.51
2018-05-28T11:44:27.830Z,43.70
2018-05-28T11:46:55.372Z,43.24
2018-05-28T11:49:22.928Z,44.12
2018-05-28T11:51:50.511Z,42.36
2018-05-28T11:54:18.051Z,42.98
2018-05-28T11:56:45.591Z,43.73
2018-05-28T11:59:13.538Z,40.91
2018-05-28T12:01:41.068Z,40.40
2018-05-28T12:04:08.591Z,40.30
2018-05-28T12:06:36.156Z,39.02
2018-05-28T12:09:03.705Z,37.25
2018-05-28T12:11:31.302Z,39.17
2018-05-28T12:13:58.855Z,42.05
2018-05-28T12:16:26.379Z,41.30
2018-05-28T12:18:54.320Z,41.27
2018-05-28T12:21:21.846Z,41.33
2018-05-28T12:23:49.385Z,39.96
2018-05-28T12:26:16.966Z,40.91
2018-05-28T12:28:44.532Z,38.47
2018-05-28T12:31:12.101Z,37.96
2018-05-28T12:33:39.655Z,38.46
2018-05-28T12:36:07.203Z,38.15
2018-05-28T12:38:34.742Z,38.98
2018-05-28T12:41:02.298Z,39.70
2018-05-28T12:43:29.833Z,38.59
2018-05-28T12:45:57.384Z,38.09
2018-05-28T12:48:24.916Z,38.16
2018-05-28T12:50:52.878Z,39.08
2018-05-28T12:53:20.412Z,39.38
2018-05-28T12:55:47.941Z,38.94
2018-05-28T12:58:15.703Z,38.71
2018-05-28T13:00:43.232Z,38.11
2018-05-28T13:03:10.764Z,38.65
2018-05-28T13:05:38.431Z,39.06
2018-05-28T13:08:05.963Z,39.99
2018-05-28T13:10:33.490Z,38.85
2018-05-28T13:13:01.091Z,39.73
2018-05-28T13:15:28.615Z,39.29
2018-05-28T13:17:56.172Z,40.77
2018-05-28T13:20:23.705Z,41.59
2018-05-28T13:22:51.633Z,40.58
2018-05-28T13:25:19.168Z,39.32
2018-05-28T13:27:46.694Z,40.07
2018-05-28T13:30:14.250Z,40.16
2018-05-28T13:32:41.783Z,40.49
2018-05-28T13:35:09.456Z,40.82
2018-05-28T13:37:36.986Z,40.75
2018-05-28T13:40:04.534Z,40.84
2018-05-28T13:42:32.099Z,42.09
2018-05-28T13:44:59.803Z,41.94
2018-05-28T13:47:27.336Z,41.30
2018-05-28T13:49:54.872Z,41.81
2018-05-28T13:52:22.435Z,41.85
2018-05-28T13:54:49.967Z,40.37
2018-05-28T13:57:17.962Z,40.34
2018-05-28T13:59:45.548Z,40.99
2018-05-28T14:02:13.136Z,41.68
2018-05-28T14:04:40.978Z,40.96
2018-05-28T14:07:08.514Z,40.18
2018-05-28T14:09:36.060Z,40.44
2018-05-28T14:12:03.651Z,41.26
2018-05-28T14:14:31.208Z,40.50
2018-05-28T14:19:26.218Z,39.09
2018-05-28T14:21:53.836Z,38.71
2018-05-28T14:24:21.392Z,39.09
2018-05-28T14:26:48.953Z,40.16
2018-05-28T14:29:16.512Z,40.82
2018-05-28T14:31:44.351Z,40.83
2018-05-28T14:34:11.892Z,41.31
2018-05-28T14:36:39.470Z,41.02
2018-05-28T14:39:07.031Z,41.44
2018-05-28T14:41:34.559Z,40.55
2018-05-28T14:44:02.424Z,41.19
2018-05-28T14:46:29.971Z,41.46
2018-05-28T14:48:57.530Z,39.47
2018-05-28T14:51:25.095Z,39.95
2018-05-28T14:53:52.640Z,39.49
2018-05-28T14:56:20.205Z,41.49
2018-05-28T14:58:47.768Z,40.33
2018-05-28T15:01:15.296Z,41.08
2018-05-28T15:03:42.975Z,41.05
2018-05-28T15:06:10.504Z,40.91
2018-05-28T15:08:38.040Z,40.44
2018-05-28T15:11:05.600Z,39.66
2018-05-28T15:13:33.126Z,39.47
2018-05-28T15:16:00.678Z,40.08
2018-05-28T15:18:28.223Z,39.77
2018-05-28T15:20:55.751Z,39.23
2018-05-28T15:23:23.694Z,39.88
2018-05-28T15:25:51.225Z,38.99
2018-05-28T15:28:18.757Z,39.46
2018-05-28T15:30:46.325Z,38.76
2018-05-28T15:33:13.867Z,39.38
2018-05-28T15:35:41.446Z,38.93
2018-05-28T15:38:08.971Z,38.16
2018-05-28T15:40:36.497Z,38.77
2018-05-28T15:43:04.051Z,39.10
2018-05-28T15:45:31.603Z,38.58
2018-05-28T15:47:59.135Z,39.16
2018-05-28T15:50:26.694Z,39.19
2018-05-28T15:52:54.231Z,38.91
2018-05-28T15:55:21.786Z,38.80
2018-05-28T15:57:49.479Z,37.92
2018-05-28T16:00:17.013Z,38.39
2018-05-28T16:02:44.592Z,39.17
2018-05-28T16:05:12.311Z,38.98
2018-05-28T16:07:39.855Z,38.17
2018-05-28T16:10:07.409Z,38.21
2018-05-28T16:12:34.963Z,38.12
2018-05-28T16:15:02.491Z,38.76
2018-05-28T16:17:30.199Z,39.11
2018-05-28T16:19:57.728Z,38.41
2018-05-28T16:22:25.256Z,38.54
2018-05-28T16:24:52.813Z,38.78
2018-05-28T16:27:20.905Z,39.02
2018-05-28T16:29:48.437Z,38.63
2018-05-28T16:32:16.020Z,39.02
2018-05-28T16:34:44.011Z,39.53
2018-05-28T16:37:11.555Z,39.72
2018-05-28T16:39:39.088Z,38.96
2018-05-28T16:42:06.641Z,39.35
2018-05-28T16:44:34.174Z,39.09
2018-05-28T16:47:01.742Z,39.46
2018-05-28T16:49:29.269Z,39.57
2018-05-28T16:51:57.220Z,39.89
2018-05-28T16:54:24.831Z,39.68
2018-05-28T16:56:52.378Z,39.74
2018-05-28T16:59:20.045Z,39.50
2018-05-28T17:01:47.600Z,40.41
2018-05-28T17:04:15.131Z,40.25
2018-05-28T17:06:42.722Z,39.90
2018-05-28T17:09:10.281Z,40.53
2018-05-28T17:11:37.824Z,40.33
2018-05-28T17:14:05.390Z,40.44
2018-05-28T17:16:32.946Z,40.51
2018-05-28T17:19:00.475Z,40.39
2018-05-28T17:21:28.052Z,40.34
2018-05-28T17:23:55.576Z,40.10
2018-05-28T17:26:23.239Z,40.21
2018-05-28T17:28:50.767Z,40.74
2018-05-28T17:31:18.317Z,40.64
2018-05-28T17:33:45.888Z,40.57
2018-05-28T17:36:13.493Z,41.41
2018-05-28T17:38:41.139Z,40.41
2018-05-28T17:41:08.695Z,40.37
2018-05-28T17:43:36.226Z,40.51
2018-05-28T17:46:04.123Z,40.69
2018-05-28T17:48:31.703Z,40.71
2018-05-28T17:50:59.247Z,40.04
2018-05-28T17:53:26.815Z,39.66
2018-05-28T17:55:54.348Z,39.39
2018-05-28T17:58:21.901Z,39.01
2018-05-28T18:00:49.625Z,38.58
2018-05-28T18:03:17.204Z,38.54
2018-05-28T18:05:44.739Z,38.84
2018-05-28T18:08:12.263Z,38.05
2018-05-28T18:10:39.863Z,38.08
2018-05-28T18:13:07.390Z,38.13
2018-05-28T18:15:34.944Z,39.18
2018-05-28T18:18:02.520Z,39.47
2018-05-28T18:20:30.201Z,39.97
2018-05-28T18:22:57.734Z,40.59
2018-05-28T18:25:25.262Z,41.56
2018-05-28T18:27:52.828Z,41.57
2018-05-28T18:30:20.350Z,41.81
2018-05-28T18:32:48.358Z,41.30
2018-05-28T18:35:15.891Z,40.77
2018-05-28T18:37:43.425Z,41.25
2018-05-28T18:40:11.147Z,42.31
2018-05-28T18:42:38.682Z,42.50
2018-05-28T18:45:06.208Z,42.56
2018-05-28T18:47:33.791Z,43.16
2018-05-28T18:50:01.341Z,43.63
2018-05-28T18:52:29.328Z,43.84
2018-05-28T18:54:57.294Z,43.74
2018-05-28T18:57:24.824Z,44.56
2018-05-28T18:59:52.358Z,44.66
2018-05-28T19:02:19.910Z,45.06
2018-05-28T19:04:47.465Z,46.40
2018-05-28T19:07:15.008Z,46.70
2018-05-28T19:09:43.772Z,47.03
2018-05-28T19:12:11.315Z,47.26
2018-05-28T19:14:38.847Z,47.63
2018-05-28T19:17:06.423Z,48.03
2018-05-28T19:19:33.964Z,48.33
2018-05-28T19:22:01.575Z,49.02
2018-05-28T19:24:29.115Z,49.46
2018-05-28T19:26:57.039Z,49.92
2018-05-28T19:29:25.669Z,50.35
2018-05-28T19:31:53.510Z,50.86
2018-05-28T19:34:21.085Z,51.03
2018-05-28T19:36:48.615Z,51.42
2018-05-28T19:39:16.155Z,51.65
2018-05-28T19:41:43.702Z,52.18
2018-05-28T19:44:11.238Z,52.40
2018-05-28T19:46:38.822Z,52.50
2018-05-28T19:49:06.347Z,52.93
2018-05-28T19:51:33.871Z,53.10
2018-05-28T19:54:01.577Z,53.58
2018-05-28T19:56:29.111Z,53.56
2018-05-28T19:58:56.676Z,53.79
2018-05-28T20:01:24.247Z,54.10
2018-05-28T20:03:51.775Z,54.20
2018-05-28T20:06:19.298Z,54.44
2018-05-28T20:08:47.192Z,54.54
2018-05-28T20:11:14.721Z,55.09
2018-05-28T20:13:42.261Z,55.18
2018-05-28T20:16:09.816Z,55.30
2018-05-28T20:18:37.373Z,55.84
2018-05-28T20:21:04.936Z,55.75
2018-05-28T20:23:32.475Z,56.47
2018-05-28T20:26:00.134Z,56.31
2018-05-28T20:28:27.672Z,56.32
2018-05-28T20:30:55.208Z,56.68
2018-05-28T20:33:23.092Z,57.16
2018-05-28T20:35:50.618Z,57.55
2018-05-28T20:38:18.133Z,57.50
2018-05-28T20:40:46.023Z,57.75
2018-05-28T20:43:13.556Z,57.78
2018-05-28T20:45:41.125Z,58.13
2018-05-28T20:48:08.685Z,58.76
2018-05-28T20:50:36.610Z,58.49
2018-05-28T20:53:04.138Z,58.59
2018-05-28T20:55:31.662Z,58.70
2018-05-28T20:57:59.323Z,58.42
2018-05-28T21:00:26.850Z,58.49
2018-05-28T21:02:54.376Z,58.95
2018-05-28T21:05:21.955Z,58.78
2018-05-28T21:07:49.488Z,58.72
2018-05-28T21:10:17.031Z,58.82
2018-05-28T21:12:44.583Z,58.70
2018-05-28T21:15:12.144Z,59.14
2018-05-28T21:17:39.734Z,59.08
2018-05-28T21:20:07.290Z,59.62
2018-05-28T21:22:34.827Z,59.57
2018-05-28T21:25:02.600Z,59.78
2018-05-28T21:27:30.136Z,59.92
2018-05-28T21:29:57.667Z,59.84
2018-05-28T21:32:25.220Z,59.70
2018-05-28T21:34:52.769Z,59.35
2018-05-28T21:37:20.295Z,59.39
2018-05-28T21:39:48.244Z,59.56
2018-05-28T21:42:15.778Z,59.61
2018-05-28T21:44:43.312Z,59.89
2018-05-28T21:47:10.976Z,59.94
2018-05-28T21:49:38.506Z,60.06
2018-05-28T21:52:06.041Z,60.17
2018-05-28T21:54:33.774Z,60.37
2018-05-28T21:57:01.313Z,60.35
2018-05-28T21:59:28.851Z,60.45
2018-05-28T22:01:56.412Z,60.90
2018-05-28T22:04:23.934Z,60.77
2018-05-28T22:06:52.362Z,60.89
2018-05-28T22:09:19.890Z,61.06
2018-05-28T22:11:47.415Z,61.12
2018-05-28T22:14:15.010Z,61.14
2018-05-28T22:16:42.541Z,61.49
2018-05-28T22:19:10.067Z,61.26
2018-05-28T22:21:37.620Z,61.46
2018-05-28T22:24:05.176Z,61.46
2018-05-28T22:26:32.707Z,61.69
2018-05-28T22:29:00.276Z,61.60
2018-05-28T22:31:27.823Z,61.79
2018-05-28T22:33:55.384Z,62.06
2018-05-28T22:36:23.342Z,62.07
2018-05-28T22:38:50.870Z,62.06
2018-05-28T22:41:18.527Z,62.32
2018-05-28T22:43:46.263Z,62.21
2018-05-28T22:46:13.799Z,62.52
2018-05-28T22:48:41.343Z,62.49
2018-05-28T22:51:09.004Z,62.77
2018-05-28T22:53:36.526Z,62.99
2018-05-28T22:56:04.443Z,63.31
2018-05-28T22:58:31.972Z,63.25
2018-05-28T23:00:59.503Z,63.12
2018-05-28T23:03:27.052Z,63.15
2018-05-28T23:05:54.618Z,63.63
2018-05-28T23:08:22.178Z,63.55
2018-05-28T23:10:49.715Z,63.53
2018-05-28T23:13:17.286Z,63.74
2018-05-28T23:15:44.816Z,64.17
2018-05-28T23:18:12.352Z,63.87
2018-05-28T23:20:39.903Z,63.91
2018-05-28T23:23:07.435Z,64.22
2018-05-28T23:25:34.998Z,64.36
2018-05-28T23:28:02.535Z,64.42
2018-05-28T23:30:30.372Z,64.50
2018-05-28T23:32:57.913Z,64.42
2018-05-28T23:35:25.450Z,64.92
2018-05-28T23:37:53.150Z,64.63
2018-05-28T23:40:20.677Z,64.53
2018-05-28T23:42:48.752Z,64.77
2018-05-28T23:45:16.287Z,64.72
2018-05-28T23:47:43.823Z,64.66
2018-05-28T23:50:11.463Z,64.59
2018-05-28T23:52:38.988Z,64.73
2018-05-28T23:55:06.527Z,64.80
2018-05-28T23:57:34.081Z,65.03
